Terminal Aerodrome Forecast
Issued by NWS

Home | Current Version | Previous Version | Text Only | Print | Product List | Glossary On
Versions: 1 2 3 4 5 6 7 8 9 10 11 12 13 14
000
FTUS43 KPAH 281120
TAFCGI
TAF
KCGI 281120Z 2812/2912 00000KT P6SM SCT250
     FM281700 22004KT P6SM VCTS SCT035CB BKN100
     FM282300 00000KT P6SM SCT250
      TEMPO 2908/2912 3SM BR=

USA.gov is the U.S. government's official web portal to all federal, state and local government web resources and services.